Terminal Aerodrome Forecast
Issued by NWS

Home | Current Version | Previous Version | Text Only | Print | Product List | Glossary On
Versions: 1 2 3 4 5 6 7 8 9 10 11 12 13 14 15 16 17 18 19 20
000
FTUS45 KBOU 242059 AAA
TAFAPA
TAF AMD
KAPA 242059Z 2421/2518 03012KT P6SM VCSH SCT025 BKN060
     FM250000 11009KT P6SM SCT060 SCT090
     FM250200 18007KT P6SM FEW100
     FM250500 20008KT P6SM FEW250
     FM251500 15008KT P6SM SCT250=

USA.gov is the U.S. government's official web portal to all federal, state and local government web resources and services.